CheckWX is a tool to help pilots better visualize weather data.  It is not intended as a substitute for an official pre-flight weather briefing.

10:54:24 UTC

KBRL TAF
Southeast Iowa Regional Airport
Burlington, Iowa, USA
KBRL 051120Z 0512/0612 09004KT P6SM BKN100 FM051700 12007KT P6SM SCT200

Apr-5@
12:00 UTC

Apr-5 @ 12:00 UTC

Apr-5@
17:00 UTC

Apr-5 @ 17:00 UTC

TAF KBRL 051120Z 0512/0612 09004KT P6SM BKN100

Expired

Wind
  • 090° at 4 KTS
Cloud Levels
  • Broken at 10,000' AGL

Apr-5@
17:00 UTC

Apr-5 @ 17:00 UTC

Apr-6@
12:00 UTC

Apr-6 @ 12:00 UTC

FM051700 12007KT P6SM SCT200

From

From Standard forecast or significant change

Wind
  • 120° at 7 KTS
Cloud Levels
  • Scattered at 20,000' AGL